sensor_id;sensor_type;location;lat;lon;timestamp;P1;durP1;ratioP1;P2;durP2;ratioP2
1719;SDS011;857;52.872;9.692;2023-02-15T00:01:30;38.43;;;20.90;;
1719;SDS011;857;52.872;9.692;2023-02-15T00:03:58;41.87;;;21.53;;
1719;SDS011;857;52.872;9.692;2023-02-15T00:06:25;38.57;;;21.50;;
1719;SDS011;857;52.872;9.692;2023-02-15T00:08:53;36.40;;;19.00;;
1719;SDS011;857;52.872;9.692;2023-02-15T00:11:21;32.03;;;19.90;;
1719;SDS011;857;52.872;9.692;2023-02-15T00:14:05;36.60;;;20.47;;
1719;SDS011;857;52.872;9.692;2023-02-15T00:16:33;32.83;;;19.13;;
1719;SDS011;857;52.872;9.692;2023-02-15T00:19:01;34.53;;;19.03;;
1719;SDS011;857;52.872;9.692;2023-02-15T00:21:29;33.80;;;18.97;;
1719;SDS011;857;52.872;9.692;2023-02-15T00:23:58;34.47;;;18.37;;
1719;SDS011;857;52.872;9.692;2023-02-15T00:26:26;34.23;;;20.63;;
1719;SDS011;857;52.872;9.692;2023-02-15T00:28:54;33.27;;;19.30;;
1719;SDS011;857;52.872;9.692;2023-02-15T00:31:26;35.80;;;19.70;;
1719;SDS011;857;52.872;9.692;2023-02-15T00:33:56;38.70;;;20.10;;
1719;SDS011;857;52.872;9.692;2023-02-15T00:36:23;33.87;;;19.60;;
1719;SDS011;857;52.872;9.692;2023-02-15T00:38:51;33.80;;;18.37;;
1719;SDS011;857;52.872;9.692;2023-02-15T00:41:19;28.70;;;18.77;;
1719;SDS011;857;52.872;9.692;2023-02-15T00:43:46;32.23;;;17.57;;
1719;SDS011;857;52.872;9.692;2023-02-15T00:46:14;36.90;;;18.90;;
1719;SDS011;857;52.872;9.692;2023-02-15T00:48:43;36.03;;;19.13;;
1719;SDS011;857;52.872;9.692;2023-02-15T00:51:11;31.30;;;18.47;;
1719;SDS011;857;52.872;9.692;2023-02-15T00:53:39;33.80;;;17.77;;
1719;SDS011;857;52.872;9.692;2023-02-15T00:56:06;31.63;;;17.13;;
1719;SDS011;857;52.872;9.692;2023-02-15T00:58:34;31.10;;;18.30;;
1719;SDS011;857;52.872;9.692;2023-02-15T01:01:03;35.57;;;18.27;;
1719;SDS011;857;52.872;9.692;2023-02-15T01:03:32;31.77;;;17.43;;
1719;SDS011;857;52.872;9.692;2023-02-15T01:06:03;34.43;;;19.63;;
1719;SDS011;857;52.872;9.692;2023-02-15T01:08:31;32.40;;;18.33;;
1719;SDS011;857;52.872;9.692;2023-02-15T01:11:02;28.67;;;18.30;;
1719;SDS011;857;52.872;9.692;2023-02-15T01:13:30;38.57;;;18.53;;
1719;SDS011;857;52.872;9.692;2023-02-15T01:15:58;34.27;;;18.90;;
1719;SDS011;857;52.872;9.692;2023-02-15T01:18:26;31.60;;;17.23;;
1719;SDS011;857;52.872;9.692;2023-02-15T01:20:54;32.33;;;18.57;;
1719;SDS011;857;52.872;9.692;2023-02-15T01:23:23;38.20;;;18.30;;
1719;SDS011;857;52.872;9.692;2023-02-15T01:25:51;37.80;;;18.30;;
1719;SDS011;857;52.872;9.692;2023-02-15T01:28:19;35.37;;;19.30;;
1719;SDS011;857;52.872;9.692;2023-02-15T01:30:47;33.60;;;17.23;;
1719;SDS011;857;52.872;9.692;2023-02-15T01:33:16;45.07;;;19.17;;
1719;SDS011;857;52.872;9.692;2023-02-15T01:35:44;39.63;;;17.70;;
1719;SDS011;857;52.872;9.692;2023-02-15T01:38:12;38.23;;;18.80;;
1719;SDS011;857;52.872;9.692;2023-02-15T01:40:41;36.63;;;18.83;;
1719;SDS011;857;52.872;9.692;2023-02-15T01:43:11;41.87;;;19.03;;
1719;SDS011;857;52.872;9.692;2023-02-15T01:45:39;41.40;;;18.00;;
1719;SDS011;857;52.872;9.692;2023-02-15T01:48:14;45.87;;;19.17;;
1719;SDS011;857;52.872;9.692;2023-02-15T01:50:46;44.37;;;19.00;;
1719;SDS011;857;52.872;9.692;2023-02-15T01:53:15;40.07;;;18.27;;
1719;SDS011;857;52.872;9.692;2023-02-15T01:55:46;40.07;;;16.77;;
1719;SDS011;857;52.872;9.692;2023-02-15T01:58:14;46.47;;;17.03;;
1719;SDS011;857;52.872;9.692;2023-02-15T02:00:42;36.27;;;17.47;;
1719;SDS011;857;52.872;9.692;2023-02-15T02:03:11;41.10;;;17.77;;
1719;SDS011;857;52.872;9.692;2023-02-15T02:05:39;55.27;;;18.10;;
1719;SDS011;857;52.872;9.692;2023-02-15T02:08:07;42.27;;;18.60;;
1719;SDS011;857;52.872;9.692;2023-02-15T02:10:35;39.60;;;18.00;;
1719;SDS011;857;52.872;9.692;2023-02-15T02:13:05;29.37;;;16.80;;
1719;SDS011;857;52.872;9.692;2023-02-15T02:15:38;40.47;;;18.07;;
1719;SDS011;857;52.872;9.692;2023-02-15T02:18:14;39.77;;;17.03;;
1719;SDS011;857;52.872;9.692;2023-02-15T02:20:48;33.70;;;17.00;;
1719;SDS011;857;52.872;9.692;2023-02-15T02:29:03;34.03;;;16.90;;
1719;SDS011;857;52.872;9.692;2023-02-15T02:31:42;34.43;;;16.90;;
1719;SDS011;857;52.872;9.692;2023-02-15T02:34:14;30.03;;;16.63;;
1719;SDS011;857;52.872;9.692;2023-02-15T02:36:45;35.50;;;15.80;;
1719;SDS011;857;52.872;9.692;2023-02-15T02:39:21;32.37;;;17.03;;
1719;SDS011;857;52.872;9.692;2023-02-15T02:41:51;26.47;;;16.17;;
1719;SDS011;857;52.872;9.692;2023-02-15T02:44:24;28.93;;;15.70;;
1719;SDS011;857;52.872;9.692;2023-02-15T02:46:54;34.17;;;15.90;;
1719;SDS011;857;52.872;9.692;2023-02-15T02:49:30;33.97;;;16.00;;
1719;SDS011;857;52.872;9.692;2023-02-15T02:51:59;31.00;;;16.20;;
1719;SDS011;857;52.872;9.692;2023-02-15T02:54:27;27.83;;;15.97;;
1719;SDS011;857;52.872;9.692;2023-02-15T02:56:55;39.07;;;16.43;;
1719;SDS011;857;52.872;9.692;2023-02-15T02:59:24;30.50;;;16.10;;
1719;SDS011;857;52.872;9.692;2023-02-15T03:01:54;32.67;;;17.87;;
1719;SDS011;857;52.872;9.692;2023-02-15T03:04:24;27.07;;;15.67;;
1719;SDS011;857;52.872;9.692;2023-02-15T03:06:56;38.07;;;14.60;;
1719;SDS011;857;52.872;9.692;2023-02-15T03:09:26;35.23;;;15.70;;
1719;SDS011;857;52.872;9.692;2023-02-15T03:12:00;34.67;;;15.50;;
1719;SDS011;857;52.872;9.692;2023-02-15T03:14:28;31.37;;;16.40;;
1719;SDS011;857;52.872;9.692;2023-02-15T03:16:56;28.57;;;15.37;;
1719;SDS011;857;52.872;9.692;2023-02-15T03:19:25;32.00;;;15.57;;
1719;SDS011;857;52.872;9.692;2023-02-15T03:21:57;32.97;;;15.80;;
1719;SDS011;857;52.872;9.692;2023-02-15T03:24:35;27.40;;;14.10;;
1719;SDS011;857;52.872;9.692;2023-02-15T03:27:06;29.33;;;14.10;;
1719;SDS011;857;52.872;9.692;2023-02-15T03:29:34;28.13;;;14.50;;
1719;SDS011;857;52.872;9.692;2023-02-15T03:32:03;31.90;;;15.00;;
1719;SDS011;857;52.872;9.692;2023-02-15T03:34:32;37.13;;;14.93;;
1719;SDS011;857;52.872;9.692;2023-02-15T03:37:03;29.57;;;14.00;;
1719;SDS011;857;52.872;9.692;2023-02-15T03:39:32;34.87;;;15.97;;
1719;SDS011;857;52.872;9.692;2023-02-15T03:42:03;28.07;;;14.03;;
1719;SDS011;857;52.872;9.692;2023-02-15T03:44:35;33.37;;;15.73;;
1719;SDS011;857;52.872;9.692;2023-02-15T03:47:05;36.10;;;15.17;;
1719;SDS011;857;52.872;9.692;2023-02-15T03:49:39;33.77;;;15.23;;
1719;SDS011;857;52.872;9.692;2023-02-15T03:52:10;29.50;;;14.50;;
1719;SDS011;857;52.872;9.692;2023-02-15T03:54:38;24.53;;;15.20;;
1719;SDS011;857;52.872;9.692;2023-02-15T03:57:13;23.03;;;14.80;;
1719;SDS011;857;52.872;9.692;2023-02-15T03:59:59;26.20;;;14.80;;
1719;SDS011;857;52.872;9.692;2023-02-15T04:02:50;26.77;;;14.00;;
1719;SDS011;857;52.872;9.692;2023-02-15T04:05:20;33.17;;;14.23;;
1719;SDS011;857;52.872;9.692;2023-02-15T04:07:49;29.77;;;13.57;;
1719;SDS011;857;52.872;9.692;2023-02-15T04:10:16;26.20;;;13.83;;
1719;SDS011;857;52.872;9.692;2023-02-15T04:13:02;25.73;;;13.40;;
1719;SDS011;857;52.872;9.692;2023-02-15T04:15:30;24.47;;;14.00;;
1719;SDS011;857;52.872;9.692;2023-02-15T04:18:20;25.67;;;14.53;;
1719;SDS011;857;52.872;9.692;2023-02-15T04:21:02;24.00;;;13.67;;
1719;SDS011;857;52.872;9.692;2023-02-15T04:23:48;35.60;;;14.60;;
1719;SDS011;857;52.872;9.692;2023-02-15T04:26:33;25.57;;;14.37;;
1719;SDS011;857;52.872;9.692;2023-02-15T04:29:01;26.93;;;13.27;;
1719;SDS011;857;52.872;9.692;2023-02-15T04:31:29;25.60;;;14.27;;
1719;SDS011;857;52.872;9.692;2023-02-15T04:33:57;19.77;;;12.70;;
1719;SDS011;857;52.872;9.692;2023-02-15T04:36:24;20.03;;;12.50;;
1719;SDS011;857;52.872;9.692;2023-02-15T04:38:53;23.10;;;13.73;;
1719;SDS011;857;52.872;9.692;2023-02-15T04:41:21;20.63;;;12.97;;
1719;SDS011;857;52.872;9.692;2023-02-15T04:43:49;22.30;;;12.97;;
1719;SDS011;857;52.872;9.692;2023-02-15T04:46:16;19.23;;;12.73;;
1719;SDS011;857;52.872;9.692;2023-02-15T04:48:44;19.57;;;12.37;;
1719;SDS011;857;52.872;9.692;2023-02-15T04:51:12;18.37;;;11.90;;
1719;SDS011;857;52.872;9.692;2023-02-15T04:53:39;22.67;;;12.30;;
1719;SDS011;857;52.872;9.692;2023-02-15T04:56:08;27.80;;;13.40;;
1719;SDS011;857;52.872;9.692;2023-02-15T04:58:36;20.40;;;13.30;;
1719;SDS011;857;52.872;9.692;2023-02-15T05:01:06;18.27;;;11.70;;
1719;SDS011;857;52.872;9.692;2023-02-15T05:03:34;31.40;;;13.53;;
1719;SDS011;857;52.872;9.692;2023-02-15T05:06:02;19.37;;;12.77;;
1719;SDS011;857;52.872;9.692;2023-02-15T05:08:30;23.43;;;13.17;;
1719;SDS011;857;52.872;9.692;2023-02-15T05:10:58;30.80;;;13.30;;
1719;SDS011;857;52.872;9.692;2023-02-15T05:13:27;26.00;;;12.80;;
1719;SDS011;857;52.872;9.692;2023-02-15T05:15:54;23.80;;;12.97;;
1719;SDS011;857;52.872;9.692;2023-02-15T05:18:22;19.10;;;12.23;;
1719;SDS011;857;52.872;9.692;2023-02-15T05:20:50;26.47;;;13.50;;
1719;SDS011;857;52.872;9.692;2023-02-15T05:26:20;23.27;;;12.70;;
1719;SDS011;857;52.872;9.692;2023-02-15T05:29:07;19.00;;;12.10;;
1719;SDS011;857;52.872;9.692;2023-02-15T05:31:35;19.73;;;13.57;;
1719;SDS011;857;52.872;9.692;2023-02-15T05:34:07;20.30;;;11.57;;
1719;SDS011;857;52.872;9.692;2023-02-15T05:36:35;23.80;;;12.60;;
1719;SDS011;857;52.872;9.692;2023-02-15T05:39:03;21.03;;;12.53;;
1719;SDS011;857;52.872;9.692;2023-02-15T05:41:31;23.40;;;12.93;;
1719;SDS011;857;52.872;9.692;2023-02-15T05:43:59;27.20;;;12.40;;
1719;SDS011;857;52.872;9.692;2023-02-15T05:46:28;26.30;;;12.67;;
1719;SDS011;857;52.872;9.692;2023-02-15T05:48:56;25.93;;;13.17;;
1719;SDS011;857;52.872;9.692;2023-02-15T05:51:23;21.47;;;12.80;;
1719;SDS011;857;52.872;9.692;2023-02-15T05:53:51;24.03;;;12.40;;
1719;SDS011;857;52.872;9.692;2023-02-15T05:56:19;28.03;;;14.57;;
1719;SDS011;857;52.872;9.692;2023-02-15T05:58:57;30.73;;;13.77;;
1719;SDS011;857;52.872;9.692;2023-02-15T06:01:25;29.23;;;14.13;;
1719;SDS011;857;52.872;9.692;2023-02-15T06:03:54;26.73;;;13.20;;
1719;SDS011;857;52.872;9.692;2023-02-15T06:06:21;32.60;;;13.77;;
1719;SDS011;857;52.872;9.692;2023-02-15T06:08:49;35.43;;;13.50;;
1719;SDS011;857;52.872;9.692;2023-02-15T06:11:17;29.17;;;13.93;;
1719;SDS011;857;52.872;9.692;2023-02-15T06:13:44;28.13;;;14.60;;
1719;SDS011;857;52.872;9.692;2023-02-15T06:16:12;29.93;;;13.53;;
1719;SDS011;857;52.872;9.692;2023-02-15T06:18:41;23.00;;;14.00;;
1719;SDS011;857;52.872;9.692;2023-02-15T06:21:10;26.93;;;14.37;;
1719;SDS011;857;52.872;9.692;2023-02-15T06:23:38;26.10;;;14.70;;
1719;SDS011;857;52.872;9.692;2023-02-15T06:26:06;29.13;;;14.23;;
1719;SDS011;857;52.872;9.692;2023-02-15T06:28:33;24.53;;;13.37;;
1719;SDS011;857;52.872;9.692;2023-02-15T06:31:02;34.73;;;14.20;;
1719;SDS011;857;52.872;9.692;2023-02-15T06:33:30;26.57;;;14.43;;
1719;SDS011;857;52.872;9.692;2023-02-15T06:35:59;20.43;;;13.03;;
1719;SDS011;857;52.872;9.692;2023-02-15T06:38:28;25.37;;;14.67;;
1719;SDS011;857;52.872;9.692;2023-02-15T06:40:56;24.73;;;14.50;;
1719;SDS011;857;52.872;9.692;2023-02-15T06:43:24;25.93;;;14.63;;
1719;SDS011;857;52.872;9.692;2023-02-15T06:45:52;23.40;;;14.83;;
1719;SDS011;857;52.872;9.692;2023-02-15T06:48:23;20.87;;;13.53;;
1719;SDS011;857;52.872;9.692;2023-02-15T06:50:51;25.13;;;14.37;;
1719;SDS011;857;52.872;9.692;2023-02-15T06:53:19;21.00;;;13.80;;
1719;SDS011;857;52.872;9.692;2023-02-15T06:55:48;22.07;;;13.93;;
1719;SDS011;857;52.872;9.692;2023-02-15T06:58:16;21.27;;;14.10;;
1719;SDS011;857;52.872;9.692;2023-02-15T07:00:44;22.47;;;14.03;;
1719;SDS011;857;52.872;9.692;2023-02-15T07:03:13;20.70;;;12.90;;
1719;SDS011;857;52.872;9.692;2023-02-15T07:05:41;22.40;;;13.53;;
1719;SDS011;857;52.872;9.692;2023-02-15T07:08:09;20.37;;;13.63;;
1719;SDS011;857;52.872;9.692;2023-02-15T07:10:36;22.50;;;13.60;;
1719;SDS011;857;52.872;9.692;2023-02-15T07:13:06;22.87;;;13.77;;
1719;SDS011;857;52.872;9.692;2023-02-15T07:15:32;24.80;;;15.10;;
1719;SDS011;857;52.872;9.692;2023-02-15T07:18:00;24.33;;;14.17;;
1719;SDS011;857;52.872;9.692;2023-02-15T07:20:30;24.80;;;15.33;;
1719;SDS011;857;52.872;9.692;2023-02-15T07:23:03;23.27;;;14.13;;
1719;SDS011;857;52.872;9.692;2023-02-15T07:25:31;23.73;;;14.23;;
1719;SDS011;857;52.872;9.692;2023-02-15T07:28:02;23.83;;;13.90;;
1719;SDS011;857;52.872;9.692;2023-02-15T07:30:32;24.67;;;14.40;;
1719;SDS011;857;52.872;9.692;2023-02-15T07:33:01;22.70;;;15.30;;
1719;SDS011;857;52.872;9.692;2023-02-15T07:35:48;22.40;;;14.57;;
1719;SDS011;857;52.872;9.692;2023-02-15T07:38:16;19.70;;;13.17;;
1719;SDS011;857;52.872;9.692;2023-02-15T07:40:44;20.13;;;13.63;;
1719;SDS011;857;52.872;9.692;2023-02-15T07:43:12;18.07;;;12.60;;
1719;SDS011;857;52.872;9.692;2023-02-15T07:45:41;21.40;;;13.53;;
1719;SDS011;857;52.872;9.692;2023-02-15T07:48:09;20.13;;;14.33;;
1719;SDS011;857;52.872;9.692;2023-02-15T07:50:37;21.30;;;13.20;;
1719;SDS011;857;52.872;9.692;2023-02-15T07:53:05;19.70;;;13.03;;
1719;SDS011;857;52.872;9.692;2023-02-15T07:55:32;17.90;;;12.87;;
1719;SDS011;857;52.872;9.692;2023-02-15T07:58:00;22.47;;;13.60;;
1719;SDS011;857;52.872;9.692;2023-02-15T08:00:28;19.50;;;13.43;;
1719;SDS011;857;52.872;9.692;2023-02-15T08:03:17;20.60;;;14.50;;
1719;SDS011;857;52.872;9.692;2023-02-15T08:05:45;21.07;;;14.37;;
1719;SDS011;857;52.872;9.692;2023-02-15T08:08:13;19.00;;;14.80;;
1719;SDS011;857;52.872;9.692;2023-02-15T08:10:57;17.53;;;13.37;;
1719;SDS011;857;52.872;9.692;2023-02-15T08:13:42;18.67;;;12.73;;
1719;SDS011;857;52.872;9.692;2023-02-15T08:16:19;22.63;;;14.90;;
1719;SDS011;857;52.872;9.692;2023-02-15T08:18:48;22.60;;;15.20;;
1719;SDS011;857;52.872;9.692;2023-02-15T08:21:16;24.93;;;16.37;;
1719;SDS011;857;52.872;9.692;2023-02-15T08:23:44;24.97;;;16.60;;
1719;SDS011;857;52.872;9.692;2023-02-15T08:26:12;23.30;;;15.40;;
1719;SDS011;857;52.872;9.692;2023-02-15T08:28:40;24.93;;;17.67;;
1719;SDS011;857;52.872;9.692;2023-02-15T08:31:09;25.77;;;17.73;;
1719;SDS011;857;52.872;9.692;2023-02-15T08:33:37;27.93;;;20.20;;
1719;SDS011;857;52.872;9.692;2023-02-15T08:36:07;29.47;;;19.47;;
1719;SDS011;857;52.872;9.692;2023-02-15T08:38:35;11.13;;;7.63;;
1719;SDS011;857;52.872;9.692;2023-02-15T08:41:10;36.37;;;21.90;;
1719;SDS011;857;52.872;9.692;2023-02-15T08:43:42;32.43;;;20.93;;
1719;SDS011;857;52.872;9.692;2023-02-15T08:46:10;31.17;;;18.93;;
1719;SDS011;857;52.872;9.692;2023-02-15T08:48:38;27.93;;;18.97;;
1719;SDS011;857;52.872;9.692;2023-02-15T08:51:08;30.13;;;18.90;;
1719;SDS011;857;52.872;9.692;2023-02-15T08:53:37;28.63;;;18.37;;
1719;SDS011;857;52.872;9.692;2023-02-15T08:56:05;31.87;;;19.30;;
1719;SDS011;857;52.872;9.692;2023-02-15T08:58:33;28.97;;;18.10;;
1719;SDS011;857;52.872;9.692;2023-02-15T09:01:07;26.40;;;17.37;;
1719;SDS011;857;52.872;9.692;2023-02-15T09:03:35;28.23;;;18.50;;
1719;SDS011;857;52.872;9.692;2023-02-15T09:06:03;26.47;;;18.03;;
1719;SDS011;857;52.872;9.692;2023-02-15T09:08:32;28.20;;;19.07;;
1719;SDS011;857;52.872;9.692;2023-02-15T09:11:04;25.13;;;16.07;;
1719;SDS011;857;52.872;9.692;2023-02-15T09:13:32;27.50;;;17.90;;
1719;SDS011;857;52.872;9.692;2023-02-15T09:16:00;25.60;;;17.97;;
1719;SDS011;857;52.872;9.692;2023-02-15T09:18:31;24.30;;;17.50;;
1719;SDS011;857;52.872;9.692;2023-02-15T09:21:04;23.00;;;15.90;;
1719;SDS011;857;52.872;9.692;2023-02-15T09:23:34;26.07;;;17.63;;
1719;SDS011;857;52.872;9.692;2023-02-15T09:26:03;23.83;;;16.83;;
1719;SDS011;857;52.872;9.692;2023-02-15T09:28:31;23.67;;;16.20;;
1719;SDS011;857;52.872;9.692;2023-02-15T16:48:25;27.60;;;17.77;;
1719;SDS011;857;52.872;9.692;2023-02-15T16:50:54;30.77;;;19.57;;
1719;SDS011;857;52.872;9.692;2023-02-15T16:53:23;29.43;;;18.60;;
1719;SDS011;857;52.872;9.692;2023-02-15T16:55:52;28.93;;;19.83;;
1719;SDS011;857;52.872;9.692;2023-02-15T16:58:24;27.77;;;18.40;;
1719;SDS011;857;52.872;9.692;2023-02-15T17:00:54;31.33;;;19.07;;
1719;SDS011;857;52.872;9.692;2023-02-15T17:03:23;26.73;;;18.90;;
1719;SDS011;857;52.872;9.692;2023-02-15T17:05:53;32.17;;;20.30;;
1719;SDS011;857;52.872;9.692;2023-02-15T17:08:24;34.73;;;21.07;;
1719;SDS011;857;52.872;9.692;2023-02-15T17:11:04;33.43;;;20.03;;
1719;SDS011;857;52.872;9.692;2023-02-15T17:13:33;31.23;;;21.10;;
1719;SDS011;857;52.872;9.692;2023-02-15T17:18:49;34.53;;;19.87;;
1719;SDS011;857;52.872;9.692;2023-02-15T17:21:20;29.90;;;18.50;;
1719;SDS011;857;52.872;9.692;2023-02-15T17:23:51;29.10;;;19.40;;
1719;SDS011;857;52.872;9.692;2023-02-15T17:26:24;26.83;;;18.33;;
1719;SDS011;857;52.872;9.692;2023-02-15T17:28:54;28.40;;;18.03;;
1719;SDS011;857;52.872;9.692;2023-02-15T17:31:24;26.47;;;17.80;;
1719;SDS011;857;52.872;9.692;2023-02-15T17:33:53;25.50;;;16.70;;
1719;SDS011;857;52.872;9.692;2023-02-15T17:36:25;30.40;;;17.07;;
1719;SDS011;857;52.872;9.692;2023-02-15T17:38:59;24.77;;;16.20;;
1719;SDS011;857;52.872;9.692;2023-02-15T17:41:28;29.30;;;17.00;;
1719;SDS011;857;52.872;9.692;2023-02-15T17:43:56;24.73;;;17.80;;
1719;SDS011;857;52.872;9.692;2023-02-15T17:46:24;32.90;;;18.13;;
1719;SDS011;857;52.872;9.692;2023-02-15T17:48:52;25.87;;;17.77;;
1719;SDS011;857;52.872;9.692;2023-02-15T17:51:21;29.50;;;17.80;;
1719;SDS011;857;52.872;9.692;2023-02-15T17:53:51;28.53;;;18.50;;
1719;SDS011;857;52.872;9.692;2023-02-15T17:56:37;31.83;;;19.47;;
1719;SDS011;857;52.872;9.692;2023-02-15T17:59:04;33.40;;;19.37;;
1719;SDS011;857;52.872;9.692;2023-02-15T18:01:32;27.60;;;18.93;;
1719;SDS011;857;52.872;9.692;2023-02-15T18:04:18;24.20;;;16.00;;
1719;SDS011;857;52.872;9.692;2023-02-15T18:07:04;26.50;;;16.63;;
1719;SDS011;857;52.872;9.692;2023-02-15T18:09:50;25.57;;;16.13;;
1719;SDS011;857;52.872;9.692;2023-02-15T18:12:36;26.10;;;16.53;;
1719;SDS011;857;52.872;9.692;2023-02-15T18:15:04;29.63;;;17.67;;
1719;SDS011;857;52.872;9.692;2023-02-15T18:17:34;26.40;;;16.23;;
1719;SDS011;857;52.872;9.692;2023-02-15T18:20:05;28.33;;;16.63;;
1719;SDS011;857;52.872;9.692;2023-02-15T18:22:33;24.90;;;16.20;;
1719;SDS011;857;52.872;9.692;2023-02-15T18:25:02;28.43;;;16.30;;
1719;SDS011;857;52.872;9.692;2023-02-15T18:27:30;26.17;;;17.37;;
1719;SDS011;857;52.872;9.692;2023-02-15T18:29:58;26.53;;;18.47;;
1719;SDS011;857;52.872;9.692;2023-02-15T18:32:26;26.60;;;17.70;;
1719;SDS011;857;52.872;9.692;2023-02-15T18:34:55;27.23;;;18.70;;
1719;SDS011;857;52.872;9.692;2023-02-15T18:37:24;28.80;;;18.80;;
1719;SDS011;857;52.872;9.692;2023-02-15T18:39:52;29.90;;;18.03;;
1719;SDS011;857;52.872;9.692;2023-02-15T18:42:22;26.37;;;17.70;;
1719;SDS011;857;52.872;9.692;2023-02-15T18:44:52;27.33;;;18.60;;
1719;SDS011;857;52.872;9.692;2023-02-15T18:47:21;27.33;;;18.30;;
1719;SDS011;857;52.872;9.692;2023-02-15T18:49:49;32.97;;;18.07;;
1719;SDS011;857;52.872;9.692;2023-02-15T18:52:17;29.63;;;17.47;;
1719;SDS011;857;52.872;9.692;2023-02-15T18:54:46;30.40;;;19.33;;
1719;SDS011;857;52.872;9.692;2023-02-15T18:57:14;31.03;;;19.10;;
1719;SDS011;857;52.872;9.692;2023-02-15T18:59:44;31.83;;;18.57;;
1719;SDS011;857;52.872;9.692;2023-02-15T19:02:11;27.33;;;18.03;;
1719;SDS011;857;52.872;9.692;2023-02-15T19:04:39;27.80;;;17.90;;
1719;SDS011;857;52.872;9.692;2023-02-15T19:07:09;29.40;;;18.10;;
1719;SDS011;857;52.872;9.692;2023-02-15T19:09:40;29.20;;;17.97;;
1719;SDS011;857;52.872;9.692;2023-02-15T19:12:08;27.10;;;17.70;;
1719;SDS011;857;52.872;9.692;2023-02-15T19:14:38;29.90;;;18.93;;
1719;SDS011;857;52.872;9.692;2023-02-15T19:17:11;26.50;;;18.27;;
1719;SDS011;857;52.872;9.692;2023-02-15T19:19:40;24.97;;;17.17;;
1719;SDS011;857;52.872;9.692;2023-02-15T19:22:08;29.50;;;18.27;;
1719;SDS011;857;52.872;9.692;2023-02-15T19:24:38;32.43;;;17.30;;
1719;SDS011;857;52.872;9.692;2023-02-15T19:27:06;27.00;;;17.00;;
1719;SDS011;857;52.872;9.692;2023-02-15T19:29:38;23.53;;;15.37;;
1719;SDS011;857;52.872;9.692;2023-02-15T19:32:07;23.90;;;15.97;;
1719;SDS011;857;52.872;9.692;2023-02-15T19:34:37;26.70;;;16.80;;
1719;SDS011;857;52.872;9.692;2023-02-15T19:37:05;27.30;;;16.70;;
1719;SDS011;857;52.872;9.692;2023-02-15T19:39:34;26.93;;;18.13;;
1719;SDS011;857;52.872;9.692;2023-02-15T19:42:04;27.70;;;17.40;;
1719;SDS011;857;52.872;9.692;2023-02-15T19:44:32;31.60;;;18.43;;
1719;SDS011;857;52.872;9.692;2023-02-15T19:46:59;26.43;;;18.20;;
1719;SDS011;857;52.872;9.692;2023-02-15T19:49:27;27.70;;;19.13;;
1719;SDS011;857;52.872;9.692;2023-02-15T19:51:56;28.10;;;17.97;;
1719;SDS011;857;52.872;9.692;2023-02-15T19:54:26;26.03;;;17.30;;
1719;SDS011;857;52.872;9.692;2023-02-15T19:56:55;25.43;;;16.93;;
1719;SDS011;857;52.872;9.692;2023-02-15T19:59:24;30.53;;;19.23;;
1719;SDS011;857;52.872;9.692;2023-02-15T20:01:52;26.80;;;17.10;;
1719;SDS011;857;52.872;9.692;2023-02-15T20:04:19;26.33;;;17.20;;
1719;SDS011;857;52.872;9.692;2023-02-15T20:06:47;26.67;;;17.30;;
1719;SDS011;857;52.872;9.692;2023-02-15T20:09:18;27.20;;;17.97;;
1719;SDS011;857;52.872;9.692;2023-02-15T20:11:48;24.83;;;17.77;;
1719;SDS011;857;52.872;9.692;2023-02-15T20:14:16;25.90;;;17.30;;
1719;SDS011;857;52.872;9.692;2023-02-15T20:16:44;27.97;;;17.43;;
1719;SDS011;857;52.872;9.692;2023-02-15T20:19:12;26.00;;;16.87;;
1719;SDS011;857;52.872;9.692;2023-02-15T20:21:40;26.40;;;16.77;;
1719;SDS011;857;52.872;9.692;2023-02-15T20:24:09;32.13;;;18.83;;
1719;SDS011;857;52.872;9.692;2023-02-15T20:26:41;26.67;;;17.57;;
1719;SDS011;857;52.872;9.692;2023-02-15T20:29:10;27.27;;;17.40;;
1719;SDS011;857;52.872;9.692;2023-02-15T20:31:39;29.90;;;18.27;;
1719;SDS011;857;52.872;9.692;2023-02-15T20:34:07;30.30;;;19.97;;
1719;SDS011;857;52.872;9.692;2023-02-15T20:36:35;28.13;;;17.77;;
1719;SDS011;857;52.872;9.692;2023-02-15T20:39:04;26.87;;;17.90;;
1719;SDS011;857;52.872;9.692;2023-02-15T20:41:34;29.37;;;17.60;;
1719;SDS011;857;52.872;9.692;2023-02-15T20:44:11;30.10;;;19.30;;
1719;SDS011;857;52.872;9.692;2023-02-15T20:46:41;27.77;;;17.50;;
1719;SDS011;857;52.872;9.692;2023-02-15T20:49:09;26.13;;;17.37;;
1719;SDS011;857;52.872;9.692;2023-02-15T20:51:36;29.20;;;18.57;;
1719;SDS011;857;52.872;9.692;2023-02-15T20:54:13;28.90;;;16.67;;
1719;SDS011;857;52.872;9.692;2023-02-15T20:56:41;26.17;;;16.80;;
1719;SDS011;857;52.872;9.692;2023-02-15T20:59:21;27.73;;;16.77;;
1719;SDS011;857;52.872;9.692;2023-02-15T21:01:49;29.47;;;17.83;;
1719;SDS011;857;52.872;9.692;2023-02-15T21:04:18;29.50;;;18.60;;
1719;SDS011;857;52.872;9.692;2023-02-15T21:06:46;31.53;;;19.20;;
1719;SDS011;857;52.872;9.692;2023-02-15T21:09:14;28.90;;;18.27;;
1719;SDS011;857;52.872;9.692;2023-02-15T21:11:42;31.90;;;18.30;;
1719;SDS011;857;52.872;9.692;2023-02-15T21:14:14;29.03;;;18.10;;
1719;SDS011;857;52.872;9.692;2023-02-15T21:16:44;29.57;;;19.93;;
1719;SDS011;857;52.872;9.692;2023-02-15T21:19:13;29.40;;;17.93;;
1719;SDS011;857;52.872;9.692;2023-02-15T21:21:40;28.17;;;17.70;;
1719;SDS011;857;52.872;9.692;2023-02-15T21:24:11;32.37;;;19.50;;
1719;SDS011;857;52.872;9.692;2023-02-15T21:26:40;32.00;;;17.50;;
1719;SDS011;857;52.872;9.692;2023-02-15T21:29:10;26.63;;;17.90;;
1719;SDS011;857;52.872;9.692;2023-02-15T21:31:40;31.30;;;18.63;;
1719;SDS011;857;52.872;9.692;2023-02-15T21:34:09;29.80;;;18.77;;
1719;SDS011;857;52.872;9.692;2023-02-15T21:36:37;30.00;;;19.37;;
1719;SDS011;857;52.872;9.692;2023-02-15T21:39:06;28.10;;;18.43;;
1719;SDS011;857;52.872;9.692;2023-02-15T21:41:33;29.37;;;19.43;;
1719;SDS011;857;52.872;9.692;2023-02-15T21:44:20;29.70;;;19.60;;
1719;SDS011;857;52.872;9.692;2023-02-15T21:47:07;32.27;;;20.13;;
1719;SDS011;857;52.872;9.692;2023-02-15T21:50:01;28.47;;;18.53;;
1719;SDS011;857;52.872;9.692;2023-02-15T21:52:49;28.53;;;18.43;;
1719;SDS011;857;52.872;9.692;2023-02-15T21:55:16;28.57;;;19.30;;
1719;SDS011;857;52.872;9.692;2023-02-15T21:57:43;27.73;;;18.20;;
1719;SDS011;857;52.872;9.692;2023-02-15T22:00:12;32.30;;;20.27;;
1719;SDS011;857;52.872;9.692;2023-02-15T22:02:40;27.73;;;18.10;;
1719;SDS011;857;52.872;9.692;2023-02-15T22:05:13;31.90;;;19.47;;
1719;SDS011;857;52.872;9.692;2023-02-15T22:07:41;30.30;;;18.27;;
1719;SDS011;857;52.872;9.692;2023-02-15T22:10:09;28.80;;;19.57;;
1719;SDS011;857;52.872;9.692;2023-02-15T22:12:37;29.53;;;18.47;;
1719;SDS011;857;52.872;9.692;2023-02-15T22:15:05;28.37;;;18.37;;
1719;SDS011;857;52.872;9.692;2023-02-15T22:17:33;28.00;;;18.00;;
1719;SDS011;857;52.872;9.692;2023-02-15T22:20:00;28.40;;;18.30;;
1719;SDS011;857;52.872;9.692;2023-02-15T22:22:30;26.93;;;16.73;;
1719;SDS011;857;52.872;9.692;2023-02-15T22:24:59;29.93;;;18.70;;
1719;SDS011;857;52.872;9.692;2023-02-15T22:27:26;30.27;;;19.63;;
1719;SDS011;857;52.872;9.692;2023-02-15T22:29:56;28.53;;;17.43;;
1719;SDS011;857;52.872;9.692;2023-02-15T22:32:24;29.90;;;19.83;;
1719;SDS011;857;52.872;9.692;2023-02-15T22:34:52;25.40;;;16.73;;
1719;SDS011;857;52.872;9.692;2023-02-15T22:37:20;26.43;;;16.70;;
1719;SDS011;857;52.872;9.692;2023-02-15T22:39:49;29.63;;;17.50;;
1719;SDS011;857;52.872;9.692;2023-02-15T22:42:18;28.77;;;17.97;;
1719;SDS011;857;52.872;9.692;2023-02-15T22:44:49;29.40;;;17.30;;
1719;SDS011;857;52.872;9.692;2023-02-15T22:47:18;27.33;;;17.30;;